sensor_id;sensor_type;location;lat;lon;timestamp;P1;durP1;ratioP1;P2;durP2;ratioP2
18947;SDS011;9607;51.600;7.558;2023-04-24T00:01:58;0.88;;;0.50;;
18947;SDS011;9607;51.600;7.558;2023-04-24T00:04:25;1.38;;;0.40;;
18947;SDS011;9607;51.600;7.558;2023-04-24T00:06:53;1.55;;;0.40;;
18947;SDS011;9607;51.600;7.558;2023-04-24T00:09:22;0.85;;;0.50;;
18947;SDS011;9607;51.600;7.558;2023-04-24T00:11:49;0.80;;;0.80;;
18947;SDS011;9607;51.600;7.558;2023-04-24T00:14:15;1.02;;;0.60;;
18947;SDS011;9607;51.600;7.558;2023-04-24T00:16:42;0.40;;;0.38;;
18947;SDS011;9607;51.600;7.558;2023-04-24T00:19:10;0.43;;;0.40;;
18947;SDS011;9607;51.600;7.558;2023-04-24T00:21:37;1.50;;;0.77;;
18947;SDS011;9607;51.600;7.558;2023-04-24T00:24:04;0.70;;;0.60;;
18947;SDS011;9607;51.600;7.558;2023-04-24T00:26:33;0.40;;;0.40;;
18947;SDS011;9607;51.600;7.558;2023-04-24T00:29:00;0.75;;;0.50;;
18947;SDS011;9607;51.600;7.558;2023-04-24T00:31:27;0.50;;;0.50;;
18947;SDS011;9607;51.600;7.558;2023-04-24T00:33:54;0.52;;;0.40;;
18947;SDS011;9607;51.600;7.558;2023-04-24T00:36:22;0.80;;;0.63;;
18947;SDS011;9607;51.600;7.558;2023-04-24T00:38:49;2.08;;;0.65;;
18947;SDS011;9607;51.600;7.558;2023-04-24T00:41:15;0.77;;;0.50;;
18947;SDS011;9607;51.600;7.558;2023-04-24T00:43:42;0.50;;;0.50;;
18947;SDS011;9607;51.600;7.558;2023-04-24T00:46:09;0.75;;;0.60;;
18947;SDS011;9607;51.600;7.558;2023-04-24T00:48:37;0.60;;;0.60;;
18947;SDS011;9607;51.600;7.558;2023-04-24T00:51:04;1.30;;;1.00;;
18947;SDS011;9607;51.600;7.558;2023-04-24T00:53:32;1.40;;;0.80;;
18947;SDS011;9607;51.600;7.558;2023-04-24T00:55:59;0.70;;;0.70;;
18947;SDS011;9607;51.600;7.558;2023-04-24T00:58:27;2.78;;;0.90;;
18947;SDS011;9607;51.600;7.558;2023-04-24T01:00:55;1.02;;;0.80;;
18947;SDS011;9607;51.600;7.558;2023-04-24T01:03:24;1.20;;;0.70;;
18947;SDS011;9607;51.600;7.558;2023-04-24T01:05:54;0.95;;;0.80;;
18947;SDS011;9607;51.600;7.558;2023-04-24T01:08:22;1.45;;;1.00;;
18947;SDS011;9607;51.600;7.558;2023-04-24T01:10:52;1.52;;;1.00;;
18947;SDS011;9607;51.600;7.558;2023-04-24T01:13:19;1.17;;;0.82;;
18947;SDS011;9607;51.600;7.558;2023-04-24T01:15:46;1.73;;;1.15;;
18947;SDS011;9607;51.600;7.558;2023-04-24T01:18:13;2.05;;;1.00;;
18947;SDS011;9607;51.600;7.558;2023-04-24T01:20:41;2.40;;;1.00;;
18947;SDS011;9607;51.600;7.558;2023-04-24T01:23:11;0.93;;;0.90;;
18947;SDS011;9607;51.600;7.558;2023-04-24T01:25:38;1.17;;;1.08;;
18947;SDS011;9607;51.600;7.558;2023-04-24T01:28:05;1.20;;;1.08;;
18947;SDS011;9607;51.600;7.558;2023-04-24T01:30:32;2.65;;;1.00;;
18947;SDS011;9607;51.600;7.558;2023-04-24T01:32:59;1.02;;;0.90;;
18947;SDS011;9607;51.600;7.558;2023-04-24T01:35:27;3.28;;;1.23;;
18947;SDS011;9607;51.600;7.558;2023-04-24T01:37:54;1.67;;;1.08;;
18947;SDS011;9607;51.600;7.558;2023-04-24T01:40:22;1.52;;;1.27;;
18947;SDS011;9607;51.600;7.558;2023-04-24T01:42:49;2.42;;;1.30;;
18947;SDS011;9607;51.600;7.558;2023-04-24T01:45:17;1.13;;;0.98;;
18947;SDS011;9607;51.600;7.558;2023-04-24T01:47:44;1.45;;;1.10;;
18947;SDS011;9607;51.600;7.558;2023-04-24T01:50:12;1.40;;;1.30;;
18947;SDS011;9607;51.600;7.558;2023-04-24T01:52:39;3.53;;;1.30;;
18947;SDS011;9607;51.600;7.558;2023-04-24T01:55:06;1.25;;;1.15;;
18947;SDS011;9607;51.600;7.558;2023-04-24T01:57:35;1.60;;;1.35;;
18947;SDS011;9607;51.600;7.558;2023-04-24T02:00:03;1.67;;;1.15;;
18947;SDS011;9607;51.600;7.558;2023-04-24T02:02:31;1.92;;;1.30;;
18947;SDS011;9607;51.600;7.558;2023-04-24T02:04:58;1.58;;;1.48;;
18947;SDS011;9607;51.600;7.558;2023-04-24T02:07:25;2.30;;;1.40;;
18947;SDS011;9607;51.600;7.558;2023-04-24T02:09:52;1.33;;;1.20;;
18947;SDS011;9607;51.600;7.558;2023-04-24T02:12:20;5.72;;;1.35;;
18947;SDS011;9607;51.600;7.558;2023-04-24T02:14:48;2.70;;;1.50;;
18947;SDS011;9607;51.600;7.558;2023-04-24T02:17:15;2.50;;;1.40;;
18947;SDS011;9607;51.600;7.558;2023-04-24T02:19:44;1.35;;;1.25;;
18947;SDS011;9607;51.600;7.558;2023-04-24T02:22:10;1.58;;;1.38;;
18947;SDS011;9607;51.600;7.558;2023-04-24T02:24:37;2.78;;;1.65;;
18947;SDS011;9607;51.600;7.558;2023-04-24T02:27:05;3.20;;;1.42;;
18947;SDS011;9607;51.600;7.558;2023-04-24T02:29:32;2.15;;;1.85;;
18947;SDS011;9607;51.600;7.558;2023-04-24T02:32:00;4.20;;;1.67;;
18947;SDS011;9607;51.600;7.558;2023-04-24T02:34:27;4.40;;;1.50;;
18947;SDS011;9607;51.600;7.558;2023-04-24T02:36:55;2.03;;;1.52;;
18947;SDS011;9607;51.600;7.558;2023-04-24T02:39:22;2.50;;;1.50;;
18947;SDS011;9607;51.600;7.558;2023-04-24T02:41:48;1.52;;;1.40;;
18947;SDS011;9607;51.600;7.558;2023-04-24T02:44:15;1.92;;;1.67;;
18947;SDS011;9607;51.600;7.558;2023-04-24T02:46:43;2.67;;;1.90;;
18947;SDS011;9607;51.600;7.558;2023-04-24T02:49:11;2.10;;;1.90;;
18947;SDS011;9607;51.600;7.558;2023-04-24T02:51:38;2.33;;;1.60;;
18947;SDS011;9607;51.600;7.558;2023-04-24T02:54:06;2.33;;;1.77;;
18947;SDS011;9607;51.600;7.558;2023-04-24T02:56:34;2.33;;;2.13;;
18947;SDS011;9607;51.600;7.558;2023-04-24T02:59:01;2.10;;;1.95;;
18947;SDS011;9607;51.600;7.558;2023-04-24T03:01:28;2.58;;;2.35;;
18947;SDS011;9607;51.600;7.558;2023-04-24T03:03:55;3.72;;;2.75;;
18947;SDS011;9607;51.600;7.558;2023-04-24T03:06:24;5.63;;;3.45;;
18947;SDS011;9607;51.600;7.558;2023-04-24T03:08:52;6.25;;;3.80;;
18947;SDS011;9607;51.600;7.558;2023-04-24T03:11:19;4.10;;;3.33;;
18947;SDS011;9607;51.600;7.558;2023-04-24T03:13:45;7.07;;;4.35;;
18947;SDS011;9607;51.600;7.558;2023-04-24T03:16:12;5.32;;;4.13;;
18947;SDS011;9607;51.600;7.558;2023-04-24T03:18:39;6.85;;;4.55;;
18947;SDS011;9607;51.600;7.558;2023-04-24T03:21:06;9.68;;;5.00;;
18947;SDS011;9607;51.600;7.558;2023-04-24T03:23:34;6.55;;;5.50;;
18947;SDS011;9607;51.600;7.558;2023-04-24T03:26:01;8.25;;;5.82;;
18947;SDS011;9607;51.600;7.558;2023-04-24T03:28:27;6.68;;;5.60;;
18947;SDS011;9607;51.600;7.558;2023-04-24T03:30:54;7.53;;;5.88;;
18947;SDS011;9607;51.600;7.558;2023-04-24T03:33:21;7.28;;;5.82;;
18947;SDS011;9607;51.600;7.558;2023-04-24T03:35:48;5.97;;;5.38;;
18947;SDS011;9607;51.600;7.558;2023-04-24T03:38:15;6.70;;;5.85;;
18947;SDS011;9607;51.600;7.558;2023-04-24T03:40:43;7.00;;;5.75;;
18947;SDS011;9607;51.600;7.558;2023-04-24T03:43:10;7.57;;;5.97;;
18947;SDS011;9607;51.600;7.558;2023-04-24T03:45:36;11.88;;;6.05;;
18947;SDS011;9607;51.600;7.558;2023-04-24T03:48:03;7.63;;;6.03;;
18947;SDS011;9607;51.600;7.558;2023-04-24T03:50:30;8.18;;;6.30;;
18947;SDS011;9607;51.600;7.558;2023-04-24T03:52:57;9.60;;;6.07;;
18947;SDS011;9607;51.600;7.558;2023-04-24T03:55:23;10.38;;;6.75;;
18947;SDS011;9607;51.600;7.558;2023-04-24T03:57:51;7.43;;;6.45;;
18947;SDS011;9607;51.600;7.558;2023-04-24T04:00:18;8.55;;;6.55;;
18947;SDS011;9607;51.600;7.558;2023-04-24T04:02:46;8.63;;;7.13;;
18947;SDS011;9607;51.600;7.558;2023-04-24T04:05:13;8.30;;;6.80;;
18947;SDS011;9607;51.600;7.558;2023-04-24T04:07:40;11.48;;;7.68;;
18947;SDS011;9607;51.600;7.558;2023-04-24T04:10:07;8.88;;;7.72;;
18947;SDS011;9607;51.600;7.558;2023-04-24T04:12:34;9.95;;;7.15;;
18947;SDS011;9607;51.600;7.558;2023-04-24T04:15:02;8.35;;;7.15;;
18947;SDS011;9607;51.600;7.558;2023-04-24T04:17:30;8.15;;;6.75;;
18947;SDS011;9607;51.600;7.558;2023-04-24T04:19:57;11.45;;;8.65;;
18947;SDS011;9607;51.600;7.558;2023-04-24T04:22:24;14.23;;;8.20;;
18947;SDS011;9607;51.600;7.558;2023-04-24T04:24:50;13.85;;;9.23;;
18947;SDS011;9607;51.600;7.558;2023-04-24T04:27:18;13.15;;;8.52;;
18947;SDS011;9607;51.600;7.558;2023-04-24T04:29:46;10.55;;;7.53;;
18947;SDS011;9607;51.600;7.558;2023-04-24T04:32:14;12.00;;;7.97;;
18947;SDS011;9607;51.600;7.558;2023-04-24T04:34:41;10.48;;;7.80;;
18947;SDS011;9607;51.600;7.558;2023-04-24T04:37:10;11.73;;;8.35;;
18947;SDS011;9607;51.600;7.558;2023-04-24T04:39:37;11.23;;;8.43;;
18947;SDS011;9607;51.600;7.558;2023-04-24T04:42:04;14.07;;;8.55;;
18947;SDS011;9607;51.600;7.558;2023-04-24T04:44:31;10.45;;;8.57;;
18947;SDS011;9607;51.600;7.558;2023-04-24T04:47:00;10.95;;;8.80;;
18947;SDS011;9607;51.600;7.558;2023-04-24T04:49:31;9.90;;;8.23;;
18947;SDS011;9607;51.600;7.558;2023-04-24T04:51:59;9.75;;;8.35;;
18947;SDS011;9607;51.600;7.558;2023-04-24T04:54:25;10.48;;;7.75;;
18947;SDS011;9607;51.600;7.558;2023-04-24T04:56:52;13.35;;;8.25;;
18947;SDS011;9607;51.600;7.558;2023-04-24T04:59:19;10.00;;;7.93;;
18947;SDS011;9607;51.600;7.558;2023-04-24T05:01:46;12.40;;;8.40;;
18947;SDS011;9607;51.600;7.558;2023-04-24T05:04:13;13.18;;;8.27;;
18947;SDS011;9607;51.600;7.558;2023-04-24T05:06:44;12.82;;;8.98;;
18947;SDS011;9607;51.600;7.558;2023-04-24T05:09:12;13.68;;;9.57;;
18947;SDS011;9607;51.600;7.558;2023-04-24T05:11:39;15.68;;;9.15;;
18947;SDS011;9607;51.600;7.558;2023-04-24T05:14:06;10.77;;;8.82;;
18947;SDS011;9607;51.600;7.558;2023-04-24T05:16:32;10.30;;;8.68;;
18947;SDS011;9607;51.600;7.558;2023-04-24T05:18:59;12.18;;;8.57;;
18947;SDS011;9607;51.600;7.558;2023-04-24T05:21:26;10.15;;;8.82;;
18947;SDS011;9607;51.600;7.558;2023-04-24T05:23:54;10.65;;;8.23;;
18947;SDS011;9607;51.600;7.558;2023-04-24T05:26:21;10.18;;;8.15;;
18947;SDS011;9607;51.600;7.558;2023-04-24T05:28:48;10.65;;;8.02;;
18947;SDS011;9607;51.600;7.558;2023-04-24T05:31:17;10.57;;;8.63;;
18947;SDS011;9607;51.600;7.558;2023-04-24T05:33:44;10.25;;;9.05;;
18947;SDS011;9607;51.600;7.558;2023-04-24T05:36:11;13.55;;;8.90;;
18947;SDS011;9607;51.600;7.558;2023-04-24T05:38:38;12.98;;;8.57;;
18947;SDS011;9607;51.600;7.558;2023-04-24T05:41:06;11.95;;;8.30;;
18947;SDS011;9607;51.600;7.558;2023-04-24T05:43:33;9.52;;;7.63;;
18947;SDS011;9607;51.600;7.558;2023-04-24T05:46:00;9.38;;;7.53;;
18947;SDS011;9607;51.600;7.558;2023-04-24T05:48:26;8.85;;;7.25;;
18947;SDS011;9607;51.600;7.558;2023-04-24T05:50:53;9.77;;;7.10;;
18947;SDS011;9607;51.600;7.558;2023-04-24T05:53:20;12.45;;;6.63;;
18947;SDS011;9607;51.600;7.558;2023-04-24T05:55:47;9.68;;;6.88;;
18947;SDS011;9607;51.600;7.558;2023-04-24T05:58:15;7.13;;;6.18;;
18947;SDS011;9607;51.600;7.558;2023-04-24T06:00:42;8.13;;;5.72;;
18947;SDS011;9607;51.600;7.558;2023-04-24T06:03:11;10.27;;;6.68;;
18947;SDS011;9607;51.600;7.558;2023-04-24T06:05:38;7.18;;;5.57;;
18947;SDS011;9607;51.600;7.558;2023-04-24T06:08:05;6.15;;;5.55;;
18947;SDS011;9607;51.600;7.558;2023-04-24T06:10:32;7.38;;;5.03;;
18947;SDS011;9607;51.600;7.558;2023-04-24T06:12:59;5.72;;;5.22;;
18947;SDS011;9607;51.600;7.558;2023-04-24T06:15:28;7.32;;;5.18;;
18947;SDS011;9607;51.600;7.558;2023-04-24T06:17:56;7.25;;;5.43;;
18947;SDS011;9607;51.600;7.558;2023-04-24T06:20:23;7.00;;;5.38;;
18947;SDS011;9607;51.600;7.558;2023-04-24T06:22:50;6.72;;;5.50;;
18947;SDS011;9607;51.600;7.558;2023-04-24T06:25:17;6.57;;;5.35;;
18947;SDS011;9607;51.600;7.558;2023-04-24T06:27:44;6.55;;;5.88;;
18947;SDS011;9607;51.600;7.558;2023-04-24T06:30:11;7.60;;;5.30;;
18947;SDS011;9607;51.600;7.558;2023-04-24T06:32:40;6.70;;;5.43;;
18947;SDS011;9607;51.600;7.558;2023-04-24T06:35:07;8.00;;;6.00;;
18947;SDS011;9607;51.600;7.558;2023-04-24T06:37:35;6.40;;;5.65;;
18947;SDS011;9607;51.600;7.558;2023-04-24T06:40:02;5.00;;;4.53;;
18947;SDS011;9607;51.600;7.558;2023-04-24T06:42:29;7.43;;;5.55;;
18947;SDS011;9607;51.600;7.558;2023-04-24T06:44:56;7.18;;;5.03;;
18947;SDS011;9607;51.600;7.558;2023-04-24T06:47:22;5.50;;;4.82;;
18947;SDS011;9607;51.600;7.558;2023-04-24T06:49:50;6.57;;;5.00;;
18947;SDS011;9607;51.600;7.558;2023-04-24T06:52:17;7.80;;;4.78;;
18947;SDS011;9607;51.600;7.558;2023-04-24T06:54:44;4.78;;;4.22;;
18947;SDS011;9607;51.600;7.558;2023-04-24T06:57:11;5.50;;;4.57;;
18947;SDS011;9607;51.600;7.558;2023-04-24T06:59:38;5.30;;;4.65;;
18947;SDS011;9607;51.600;7.558;2023-04-24T07:02:08;5.55;;;4.18;;
18947;SDS011;9607;51.600;7.558;2023-04-24T07:04:35;4.57;;;4.00;;
18947;SDS011;9607;51.600;7.558;2023-04-24T07:07:03;5.03;;;3.78;;
18947;SDS011;9607;51.600;7.558;2023-04-24T07:09:33;4.18;;;3.53;;
18947;SDS011;9607;51.600;7.558;2023-04-24T07:12:03;3.95;;;3.45;;
18947;SDS011;9607;51.600;7.558;2023-04-24T07:14:32;3.40;;;3.10;;
18947;SDS011;9607;51.600;7.558;2023-04-24T07:16:59;3.30;;;2.72;;
18947;SDS011;9607;51.600;7.558;2023-04-24T07:19:26;4.03;;;3.30;;
18947;SDS011;9607;51.600;7.558;2023-04-24T07:21:57;3.60;;;3.20;;
18947;SDS011;9607;51.600;7.558;2023-04-24T07:24:25;4.53;;;2.95;;
18947;SDS011;9607;51.600;7.558;2023-04-24T07:26:54;4.82;;;2.60;;
18947;SDS011;9607;51.600;7.558;2023-04-24T07:29:22;2.70;;;2.50;;
18947;SDS011;9607;51.600;7.558;2023-04-24T07:31:48;4.45;;;2.35;;
18947;SDS011;9607;51.600;7.558;2023-04-24T07:34:15;3.15;;;2.53;;
18947;SDS011;9607;51.600;7.558;2023-04-24T07:36:42;3.95;;;3.00;;
18947;SDS011;9607;51.600;7.558;2023-04-24T07:39:09;3.72;;;2.50;;
18947;SDS011;9607;51.600;7.558;2023-04-24T07:41:37;2.85;;;2.53;;
18947;SDS011;9607;51.600;7.558;2023-04-24T07:44:04;3.97;;;3.13;;
18947;SDS011;9607;51.600;7.558;2023-04-24T07:46:31;3.35;;;3.03;;
18947;SDS011;9607;51.600;7.558;2023-04-24T07:48:59;6.32;;;2.88;;
18947;SDS011;9607;51.600;7.558;2023-04-24T07:51:26;4.40;;;2.58;;
18947;SDS011;9607;51.600;7.558;2023-04-24T07:53:53;2.60;;;2.40;;
18947;SDS011;9607;51.600;7.558;2023-04-24T07:56:20;2.67;;;2.13;;
18947;SDS011;9607;51.600;7.558;2023-04-24T07:58:49;2.20;;;2.00;;
18947;SDS011;9607;51.600;7.558;2023-04-24T08:01:15;3.00;;;1.80;;
18947;SDS011;9607;51.600;7.558;2023-04-24T08:03:42;3.08;;;2.03;;
18947;SDS011;9607;51.600;7.558;2023-04-24T08:06:09;2.28;;;1.88;;
18947;SDS011;9607;51.600;7.558;2023-04-24T08:08:36;2.95;;;2.00;;
18947;SDS011;9607;51.600;7.558;2023-04-24T08:11:03;2.50;;;2.03;;
18947;SDS011;9607;51.600;7.558;2023-04-24T08:13:29;2.35;;;1.70;;
18947;SDS011;9607;51.600;7.558;2023-04-24T08:15:58;2.22;;;2.00;;
18947;SDS011;9607;51.600;7.558;2023-04-24T08:18:24;2.08;;;1.88;;
18947;SDS011;9607;51.600;7.558;2023-04-24T08:20:51;1.95;;;1.75;;
18947;SDS011;9607;51.600;7.558;2023-04-24T08:23:18;2.50;;;1.90;;
18947;SDS011;9607;51.600;7.558;2023-04-24T08:25:45;3.88;;;1.88;;
18947;SDS011;9607;51.600;7.558;2023-04-24T08:28:12;1.55;;;1.38;;
18947;SDS011;9607;51.600;7.558;2023-04-24T08:30:45;2.13;;;1.35;;
18947;SDS011;9607;51.600;7.558;2023-04-24T08:33:13;1.42;;;1.30;;
18947;SDS011;9607;51.600;7.558;2023-04-24T08:35:40;1.10;;;1.00;;
18947;SDS011;9607;51.600;7.558;2023-04-24T08:38:07;2.63;;;1.00;;
18947;SDS011;9607;51.600;7.558;2023-04-24T08:40:34;0.70;;;0.70;;
18947;SDS011;9607;51.600;7.558;2023-04-24T08:43:03;0.50;;;0.50;;
18947;SDS011;9607;51.600;7.558;2023-04-24T08:45:30;0.68;;;0.40;;
18947;SDS011;9607;51.600;7.558;2023-04-24T08:47:58;0.40;;;0.40;;
18947;SDS011;9607;51.600;7.558;2023-04-24T08:50:28;0.30;;;0.30;;
18947;SDS011;9607;51.600;7.558;2023-04-24T08:52:55;0.43;;;0.35;;
18947;SDS011;9607;51.600;7.558;2023-04-24T08:55:23;0.52;;;0.40;;
18947;SDS011;9607;51.600;7.558;2023-04-24T08:57:51;0.30;;;0.30;;
18947;SDS011;9607;51.600;7.558;2023-04-24T09:00:20;0.73;;;0.50;;
18947;SDS011;9607;51.600;7.558;2023-04-24T09:02:47;0.68;;;0.50;;
18947;SDS011;9607;51.600;7.558;2023-04-24T09:05:16;0.77;;;0.57;;
18947;SDS011;9607;51.600;7.558;2023-04-24T09:07:45;0.60;;;0.50;;
18947;SDS011;9607;51.600;7.558;2023-04-24T09:10:19;0.68;;;0.55;;
18947;SDS011;9607;51.600;7.558;2023-04-24T09:12:47;0.30;;;0.30;;
18947;SDS011;9607;51.600;7.558;2023-04-24T09:15:13;0.75;;;0.50;;
18947;SDS011;9607;51.600;7.558;2023-04-24T09:17:41;0.47;;;0.43;;
18947;SDS011;9607;51.600;7.558;2023-04-24T09:20:08;0.73;;;0.50;;
18947;SDS011;9607;51.600;7.558;2023-04-24T09:22:35;0.82;;;0.65;;
18947;SDS011;9607;51.600;7.558;2023-04-24T09:25:04;0.70;;;0.60;;
18947;SDS011;9607;51.600;7.558;2023-04-24T09:27:33;0.60;;;0.60;;
18947;SDS011;9607;51.600;7.558;2023-04-24T09:30:01;0.95;;;0.90;;
18947;SDS011;9607;51.600;7.558;2023-04-24T09:32:28;2.05;;;0.90;;
18947;SDS011;9607;51.600;7.558;2023-04-24T09:35:06;3.83;;;1.10;;
18947;SDS011;9607;51.600;7.558;2023-04-24T09:37:35;2.65;;;0.88;;
18947;SDS011;9607;51.600;7.558;2023-04-24T09:40:11;1.67;;;1.35;;
18947;SDS011;9607;51.600;7.558;2023-04-24T09:42:40;3.40;;;0.90;;
18947;SDS011;9607;51.600;7.558;2023-04-24T09:45:10;2.03;;;1.00;;
18947;SDS011;9607;51.600;7.558;2023-04-24T09:47:37;1.50;;;1.00;;
18947;SDS011;9607;51.600;7.558;2023-04-24T09:50:11;2.15;;;1.00;;
18947;SDS011;9607;51.600;7.558;2023-04-24T09:52:40;1.27;;;1.15;;
18947;SDS011;9607;51.600;7.558;2023-04-24T09:55:19;1.45;;;1.35;;
18947;SDS011;9607;51.600;7.558;2023-04-24T09:57:47;4.40;;;1.35;;
18947;SDS011;9607;51.600;7.558;2023-04-24T10:00:17;1.65;;;1.55;;
18947;SDS011;9607;51.600;7.558;2023-04-24T10:02:49;2.00;;;1.80;;
18947;SDS011;9607;51.600;7.558;2023-04-24T10:05:17;2.42;;;2.05;;
18947;SDS011;9607;51.600;7.558;2023-04-24T10:07:43;2.17;;;2.00;;
18947;SDS011;9607;51.600;7.558;2023-04-24T10:10:11;2.55;;;2.33;;
18947;SDS011;9607;51.600;7.558;2023-04-24T10:12:39;3.33;;;3.03;;
18947;SDS011;9607;51.600;7.558;2023-04-24T10:15:07;3.40;;;3.10;;
18947;SDS011;9607;51.600;7.558;2023-04-24T10:17:37;4.63;;;3.35;;
18947;SDS011;9607;51.600;7.558;2023-04-24T10:20:05;3.33;;;2.95;;
18947;SDS011;9607;51.600;7.558;2023-04-24T10:22:33;3.65;;;2.95;;
18947;SDS011;9607;51.600;7.558;2023-04-24T10:25:01;4.05;;;3.65;;
18947;SDS011;9607;51.600;7.558;2023-04-24T10:27:31;3.38;;;3.08;;
18947;SDS011;9607;51.600;7.558;2023-04-24T10:30:01;4.97;;;4.20;;
18947;SDS011;9607;51.600;7.558;2023-04-24T10:32:29;5.80;;;3.78;;
18947;SDS011;9607;51.600;7.558;2023-04-24T10:34:56;4.40;;;3.80;;
18947;SDS011;9607;51.600;7.558;2023-04-24T10:37:23;5.07;;;4.03;;
18947;SDS011;9607;51.600;7.558;2023-04-24T10:39:51;5.00;;;3.63;;
18947;SDS011;9607;51.600;7.558;2023-04-24T10:42:19;5.45;;;4.07;;
18947;SDS011;9607;51.600;7.558;2023-04-24T10:44:47;4.40;;;3.90;;
18947;SDS011;9607;51.600;7.558;2023-04-24T10:47:16;5.47;;;3.83;;
18947;SDS011;9607;51.600;7.558;2023-04-24T10:49:43;6.15;;;4.30;;
18947;SDS011;9607;51.600;7.558;2023-04-24T10:52:10;8.77;;;3.97;;
18947;SDS011;9607;51.600;7.558;2023-04-24T10:54:41;4.72;;;3.90;;
18947;SDS011;9607;51.600;7.558;2023-04-24T10:57:25;5.03;;;4.53;;
18947;SDS011;9607;51.600;7.558;2023-04-24T11:00:15;6.00;;;4.55;;
18947;SDS011;9607;51.600;7.558;2023-04-24T11:02:47;5.70;;;4.80;;
18947;SDS011;9607;51.600;7.558;2023-04-24T11:05:15;7.57;;;5.35;;
18947;SDS011;9607;51.600;7.558;2023-04-24T11:10:39;7.82;;;5.82;;
18947;SDS011;9607;51.600;7.558;2023-04-24T11:13:07;9.13;;;6.63;;
18947;SDS011;9607;51.600;7.558;2023-04-24T11:15:34;6.03;;;5.43;;
18947;SDS011;9607;51.600;7.558;2023-04-24T11:18:02;8.18;;;5.72;;
18947;SDS011;9607;51.600;7.558;2023-04-24T11:20:29;9.57;;;5.93;;
18947;SDS011;9607;51.600;7.558;2023-04-24T11:22:57;9.10;;;6.45;;
18947;SDS011;9607;51.600;7.558;2023-04-24T11:25:31;10.30;;;6.35;;
18947;SDS011;9607;51.600;7.558;2023-04-24T11:28:04;9.52;;;6.85;;
18947;SDS011;9607;51.600;7.558;2023-04-24T11:30:32;8.68;;;6.50;;
18947;SDS011;9607;51.600;7.558;2023-04-24T11:33:04;8.88;;;6.93;;
18947;SDS011;9607;51.600;7.558;2023-04-24T11:35:34;9.30;;;6.97;;
18947;SDS011;9607;51.600;7.558;2023-04-24T11:38:05;12.70;;;7.13;;
18947;SDS011;9607;51.600;7.558;2023-04-24T11:40:32;12.85;;;7.43;;
18947;SDS011;9607;51.600;7.558;2023-04-24T11:43:00;13.77;;;7.57;;
18947;SDS011;9607;51.600;7.558;2023-04-24T11:45:27;14.68;;;7.93;;
18947;SDS011;9607;51.600;7.558;2023-04-24T11:47:55;14.10;;;8.25;;
18947;SDS011;9607;51.600;7.558;2023-04-24T11:50:26;21.70;;;8.57;;
18947;SDS011;9607;51.600;7.558;2023-04-24T11:52:54;21.30;;;8.63;;
18947;SDS011;9607;51.600;7.558;2023-04-24T11:55:25;20.05;;;10.00;;
18947;SDS011;9607;51.600;7.558;2023-04-24T11:57:54;13.48;;;8.40;;
18947;SDS011;9607;51.600;7.558;2023-04-24T12:00:23;13.77;;;8.63;;
18947;SDS011;9607;51.600;7.558;2023-04-24T12:02:51;16.55;;;8.45;;
18947;SDS011;9607;51.600;7.558;2023-04-24T12:05:31;19.33;;;8.95;;
18947;SDS011;9607;51.600;7.558;2023-04-24T12:07:58;17.60;;;8.95;;
18947;SDS011;9607;51.600;7.558;2023-04-24T12:10:26;19.30;;;8.57;;
18947;SDS011;9607;51.600;7.558;2023-04-24T12:12:55;15.65;;;8.60;;
18947;SDS011;9607;51.600;7.558;2023-04-24T12:15:22;14.70;;;8.85;;
18947;SDS011;9607;51.600;7.558;2023-04-24T12:17:50;16.92;;;9.07;;
18947;SDS011;9607;51.600;7.558;2023-04-24T12:20:23;16.90;;;8.75;;
18947;SDS011;9607;51.600;7.558;2023-04-24T12:22:52;18.38;;;8.35;;
18947;SDS011;9607;51.600;7.558;2023-04-24T12:25:21;17.92;;;7.63;;
18947;SDS011;9607;51.600;7.558;2023-04-24T12:27:52;15.05;;;7.63;;
18947;SDS011;9607;51.600;7.558;2023-04-24T12:30:20;17.58;;;8.52;;
18947;SDS011;9607;51.600;7.558;2023-04-24T12:32:52;13.95;;;7.40;;
18947;SDS011;9607;51.600;7.558;2023-04-24T12:35:21;10.52;;;7.35;;
18947;SDS011;9607;51.600;7.558;2023-04-24T12:37:49;16.17;;;8.50;;
18947;SDS011;9607;51.600;7.558;2023-04-24T12:40:17;20.33;;;9.32;;
18947;SDS011;9607;51.600;7.558;2023-04-24T12:42:46;15.18;;;6.60;;
18947;SDS011;9607;51.600;7.558;2023-04-24T12:45:13;9.50;;;5.55;;
18947;SDS011;9607;51.600;7.558;2023-04-24T12:47:42;10.40;;;4.95;;
18947;SDS011;9607;51.600;7.558;2023-04-24T12:50:10;8.70;;;3.75;;
18947;SDS011;9607;51.600;7.558;2023-04-24T12:52:38;8.98;;;3.97;;
18947;SDS011;9607;51.600;7.558;2023-04-24T12:55:05;9.00;;;3.88;;
18947;SDS011;9607;51.600;7.558;2023-04-24T12:57:36;9.10;;;4.22;;
18947;SDS011;9607;51.600;7.558;2023-04-24T13:00:04;6.28;;;3.92;;
18947;SDS011;9607;51.600;7.558;2023-04-24T13:02:33;7.45;;;3.67;;
18947;SDS011;9607;51.600;7.558;2023-04-24T13:05:00;10.15;;;3.78;;
18947;SDS011;9607;51.600;7.558;2023-04-24T13:07:27;6.38;;;3.50;;
18947;SDS011;9607;51.600;7.558;2023-04-24T13:09:55;8.13;;;3.90;;
18947;SDS011;9607;51.600;7.558;2023-04-24T13:12:22;5.35;;;3.90;;
18947;SDS011;9607;51.600;7.558;2023-04-24T13:14:51;6.80;;;4.18;;
18947;SDS011;9607;51.600;7.558;2023-04-24T13:17:18;5.65;;;3.85;;
18947;SDS011;9607;51.600;7.558;2023-04-24T13:19:45;4.72;;;3.33;;
18947;SDS011;9607;51.600;7.558;2023-04-24T13:22:12;5.20;;;3.40;;
18947;SDS011;9607;51.600;7.558;2023-04-24T13:24:39;5.85;;;3.35;;
18947;SDS011;9607;51.600;7.558;2023-04-24T13:27:06;6.05;;;3.13;;
18947;SDS011;9607;51.600;7.558;2023-04-24T13:29:34;5.03;;;3.30;;
18947;SDS011;9607;51.600;7.558;2023-04-24T13:32:02;7.95;;;3.30;;
18947;SDS011;9607;51.600;7.558;2023-04-24T13:34:29;4.95;;;3.53;;
18947;SDS011;9607;51.600;7.558;2023-04-24T13:36:56;5.65;;;3.30;;
18947;SDS011;9607;51.600;7.558;2023-04-24T13:39:24;6.18;;;2.85;;
18947;SDS011;9607;51.600;7.558;2023-04-24T13:41:52;4.97;;;3.20;;
18947;SDS011;9607;51.600;7.558;2023-04-24T13:44:19;6.25;;;3.20;;
18947;SDS011;9607;51.600;7.558;2023-04-24T13:46:47;4.07;;;2.60;;
18947;SDS011;9607;51.600;7.558;2023-04-24T13:49:18;3.72;;;3.08;;
18947;SDS011;9607;51.600;7.558;2023-04-24T13:51:44;5.32;;;2.78;;
18947;SDS011;9607;51.600;7.558;2023-04-24T13:54:11;4.05;;;2.67;;
18947;SDS011;9607;51.600;7.558;2023-04-24T13:56:38;4.63;;;2.90;;
18947;SDS011;9607;51.600;7.558;2023-04-24T13:59:06;6.35;;;2.47;;
18947;SDS011;9607;51.600;7.558;2023-04-24T14:01:33;4.05;;;2.30;;
18947;SDS011;9607;51.600;7.558;2023-04-24T14:04:01;2.92;;;2.35;;
18947;SDS011;9607;51.600;7.558;2023-04-24T14:06:29;2.88;;;2.28;;
18947;SDS011;9607;51.600;7.558;2023-04-24T14:08:56;6.50;;;3.05;;
18947;SDS011;9607;51.600;7.558;2023-04-24T14:11:23;3.78;;;2.95;;
18947;SDS011;9607;51.600;7.558;2023-04-24T14:13:50;5.38;;;2.50;;
18947;SDS011;9607;51.600;7.558;2023-04-24T14:16:17;7.50;;;2.80;;
18947;SDS011;9607;51.600;7.558;2023-04-24T14:18:43;5.40;;;2.58;;
18947;SDS011;9607;51.600;7.558;2023-04-24T14:21:10;5.80;;;3.00;;
18947;SDS011;9607;51.600;7.558;2023-04-24T14:23:38;4.40;;;2.30;;
18947;SDS011;9607;51.600;7.558;2023-04-24T14:26:05;2.40;;;2.05;;
18947;SDS011;9607;51.600;7.558;2023-04-24T14:28:33;3.22;;;2.00;;
18947;SDS011;9607;51.600;7.558;2023-04-24T14:31:01;3.67;;;2.47;;
18947;SDS011;9607;51.600;7.558;2023-04-24T14:33:28;5.45;;;2.60;;
18947;SDS011;9607;51.600;7.558;2023-04-24T14:35:54;3.80;;;2.42;;
18947;SDS011;9607;51.600;7.558;2023-04-24T14:38:21;3.05;;;2.75;;
18947;SDS011;9607;51.600;7.558;2023-04-24T14:40:49;5.13;;;3.10;;
18947;SDS011;9607;51.600;7.558;2023-04-24T14:43:16;4.43;;;2.92;;
18947;SDS011;9607;51.600;7.558;2023-04-24T14:45:43;4.97;;;3.08;;
18947;SDS011;9607;51.600;7.558;2023-04-24T14:48:10;4.43;;;3.30;;
18947;SDS011;9607;51.600;7.558;2023-04-24T14:50:37;6.38;;;3.30;;
18947;SDS011;9607;51.600;7.558;2023-04-24T14:53:04;4.03;;;3.13;;
18947;SDS011;9607;51.600;7.558;2023-04-24T14:55:31;6.18;;;3.75;;
18947;SDS011;9607;51.600;7.558;2023-04-24T14:58:00;6.20;;;3.50;;
18947;SDS011;9607;51.600;7.558;2023-04-24T15:00:27;5.15;;;3.28;;
18947;SDS011;9607;51.600;7.558;2023-04-24T15:02:55;6.03;;;3.00;;
18947;SDS011;9607;51.600;7.558;2023-04-24T15:05:21;3.97;;;2.90;;